sensor_id;sensor_type;location;lat;lon;timestamp;P1;durP1;ratioP1;P2;durP2;ratioP2
75628;SDS011;64213;46.452;16.994;2023-03-01T00:00:37;19.80;;;8.03;;
75628;SDS011;64213;46.452;16.994;2023-03-01T00:03:40;19.93;;;7.87;;
75628;SDS011;64213;46.452;16.994;2023-03-01T00:06:43;18.35;;;7.62;;
75628;SDS011;64213;46.452;16.994;2023-03-01T00:09:47;21.65;;;8.40;;
75628;SDS011;64213;46.452;16.994;2023-03-01T00:12:51;18.08;;;7.45;;
75628;SDS011;64213;46.452;16.994;2023-03-01T00:15:53;18.83;;;7.37;;
75628;SDS011;64213;46.452;16.994;2023-03-01T00:18:56;19.87;;;8.20;;
75628;SDS011;64213;46.452;16.994;2023-03-01T00:21:59;21.05;;;8.38;;
75628;SDS011;64213;46.452;16.994;2023-03-01T00:25:01;21.12;;;8.68;;
75628;SDS011;64213;46.452;16.994;2023-03-01T00:28:04;21.67;;;8.10;;
75628;SDS011;64213;46.452;16.994;2023-03-01T00:31:08;18.87;;;8.43;;
75628;SDS011;64213;46.452;16.994;2023-03-01T00:34:12;21.33;;;8.10;;
75628;SDS011;64213;46.452;16.994;2023-03-01T00:37:15;15.55;;;6.87;;
75628;SDS011;64213;46.452;16.994;2023-03-01T00:40:19;15.05;;;5.80;;
75628;SDS011;64213;46.452;16.994;2023-03-01T00:43:22;18.98;;;7.40;;
75628;SDS011;64213;46.452;16.994;2023-03-01T00:46:25;11.70;;;4.47;;
75628;SDS011;64213;46.452;16.994;2023-03-01T00:49:28;20.30;;;8.17;;
75628;SDS011;64213;46.452;16.994;2023-03-01T00:52:31;22.15;;;8.50;;
75628;SDS011;64213;46.452;16.994;2023-03-01T00:55:33;19.90;;;7.97;;
75628;SDS011;64213;46.452;16.994;2023-03-01T00:58:35;14.65;;;5.87;;
75628;SDS011;64213;46.452;16.994;2023-03-01T01:01:38;21.67;;;8.70;;
75628;SDS011;64213;46.452;16.994;2023-03-01T01:04:40;19.87;;;7.70;;
75628;SDS011;64213;46.452;16.994;2023-03-01T01:07:43;25.65;;;8.93;;
75628;SDS011;64213;46.452;16.994;2023-03-01T01:10:46;23.42;;;8.02;;
75628;SDS011;64213;46.452;16.994;2023-03-01T01:13:49;24.05;;;9.43;;
75628;SDS011;64213;46.452;16.994;2023-03-01T01:16:51;18.27;;;7.37;;
75628;SDS011;64213;46.452;16.994;2023-03-01T01:19:53;22.37;;;8.83;;
75628;SDS011;64213;46.452;16.994;2023-03-01T01:22:56;24.00;;;7.93;;
75628;SDS011;64213;46.452;16.994;2023-03-01T01:26:03;18.25;;;6.97;;
75628;SDS011;64213;46.452;16.994;2023-03-01T01:29:07;27.27;;;8.40;;
75628;SDS011;64213;46.452;16.994;2023-03-01T01:32:10;22.13;;;7.23;;
75628;SDS011;64213;46.452;16.994;2023-03-01T01:35:12;20.30;;;7.27;;
75628;SDS011;64213;46.452;16.994;2023-03-01T01:38:14;13.40;;;5.65;;
75628;SDS011;64213;46.452;16.994;2023-03-01T01:41:17;19.35;;;6.78;;
75628;SDS011;64213;46.452;16.994;2023-03-01T01:47:22;19.50;;;7.10;;
75628;SDS011;64213;46.452;16.994;2023-03-01T01:50:25;18.53;;;7.57;;
75628;SDS011;64213;46.452;16.994;2023-03-01T01:53:28;20.90;;;8.07;;
75628;SDS011;64213;46.452;16.994;2023-03-01T01:56:30;18.85;;;7.32;;
75628;SDS011;64213;46.452;16.994;2023-03-01T01:59:33;20.40;;;8.13;;
75628;SDS011;64213;46.452;16.994;2023-03-01T02:02:36;14.60;;;6.13;;
75628;SDS011;64213;46.452;16.994;2023-03-01T02:09:19;19.62;;;7.68;;
75628;SDS011;64213;46.452;16.994;2023-03-01T02:12:23;20.73;;;8.43;;
75628;SDS011;64213;46.452;16.994;2023-03-01T02:15:27;18.62;;;6.35;;
75628;SDS011;64213;46.452;16.994;2023-03-01T02:18:34;20.27;;;8.33;;
75628;SDS011;64213;46.452;16.994;2023-03-01T02:31:16;15.02;;;5.57;;
75628;SDS011;64213;46.452;16.994;2023-03-01T02:34:39;9.50;;;3.43;;
75628;SDS011;64213;46.452;16.994;2023-03-01T02:37:41;15.03;;;6.67;;
75628;SDS011;64213;46.452;16.994;2023-03-01T02:40:46;18.77;;;7.35;;
75628;SDS011;64213;46.452;16.994;2023-03-01T02:43:51;20.95;;;8.55;;
75628;SDS011;64213;46.452;16.994;2023-03-01T02:46:55;20.77;;;8.13;;
75628;SDS011;64213;46.452;16.994;2023-03-01T02:49:59;21.70;;;8.10;;
75628;SDS011;64213;46.452;16.994;2023-03-01T02:53:11;19.63;;;8.00;;
75628;SDS011;64213;46.452;16.994;2023-03-01T02:56:19;20.60;;;8.10;;
75628;SDS011;64213;46.452;16.994;2023-03-01T02:59:22;19.90;;;7.65;;
75628;SDS011;64213;46.452;16.994;2023-03-01T03:02:31;16.20;;;7.62;;
75628;SDS011;64213;46.452;16.994;2023-03-01T03:05:39;17.43;;;7.30;;
75628;SDS011;64213;46.452;16.994;2023-03-01T03:08:41;20.67;;;8.03;;
75628;SDS011;64213;46.452;16.994;2023-03-01T03:11:44;21.62;;;8.73;;
75628;SDS011;64213;46.452;16.994;2023-03-01T03:14:46;18.98;;;6.85;;
75628;SDS011;64213;46.452;16.994;2023-03-01T03:17:49;9.65;;;3.55;;
75628;SDS011;64213;46.452;16.994;2023-03-01T03:20:53;18.93;;;7.20;;
75628;SDS011;64213;46.452;16.994;2023-03-01T03:23:55;16.00;;;5.70;;
75628;SDS011;64213;46.452;16.994;2023-03-01T03:26:59;17.05;;;7.05;;
75628;SDS011;64213;46.452;16.994;2023-03-01T03:30:02;17.92;;;6.25;;
75628;SDS011;64213;46.452;16.994;2023-03-01T03:33:04;14.80;;;5.70;;
75628;SDS011;64213;46.452;16.994;2023-03-01T03:36:07;14.80;;;5.60;;
75628;SDS011;64213;46.452;16.994;2023-03-01T03:39:14;13.97;;;5.70;;
75628;SDS011;64213;46.452;16.994;2023-03-01T03:42:16;19.00;;;6.40;;
75628;SDS011;64213;46.452;16.994;2023-03-01T03:45:18;16.67;;;7.68;;
75628;SDS011;64213;46.452;16.994;2023-03-01T03:48:20;14.53;;;5.67;;
75628;SDS011;64213;46.452;16.994;2023-03-01T03:51:23;18.60;;;6.37;;
75628;SDS011;64213;46.452;16.994;2023-03-01T03:54:25;16.73;;;6.35;;
75628;SDS011;64213;46.452;16.994;2023-03-01T03:57:27;18.90;;;7.25;;
75628;SDS011;64213;46.452;16.994;2023-03-01T04:00:29;21.92;;;8.07;;
75628;SDS011;64213;46.452;16.994;2023-03-01T04:03:32;17.83;;;6.33;;
75628;SDS011;64213;46.452;16.994;2023-03-01T04:06:36;25.50;;;7.63;;
75628;SDS011;64213;46.452;16.994;2023-03-01T04:09:38;19.15;;;6.65;;
75628;SDS011;64213;46.452;16.994;2023-03-01T04:12:40;16.75;;;6.70;;
75628;SDS011;64213;46.452;16.994;2023-03-01T04:15:45;19.10;;;7.03;;
75628;SDS011;64213;46.452;16.994;2023-03-01T04:18:56;10.63;;;4.27;;
75628;SDS011;64213;46.452;16.994;2023-03-01T04:22:02;13.13;;;4.83;;
75628;SDS011;64213;46.452;16.994;2023-03-01T04:25:10;18.25;;;7.22;;
75628;SDS011;64213;46.452;16.994;2023-03-01T04:28:15;21.02;;;7.87;;
75628;SDS011;64213;46.452;16.994;2023-03-01T04:31:18;17.02;;;5.60;;
75628;SDS011;64213;46.452;16.994;2023-03-01T04:34:23;17.80;;;6.77;;
75628;SDS011;64213;46.452;16.994;2023-03-01T04:37:25;13.93;;;4.20;;
75628;SDS011;64213;46.452;16.994;2023-03-01T04:40:30;9.80;;;3.80;;
75628;SDS011;64213;46.452;16.994;2023-03-01T04:43:32;14.93;;;5.47;;
75628;SDS011;64213;46.452;16.994;2023-03-01T04:46:35;19.60;;;6.40;;
75628;SDS011;64213;46.452;16.994;2023-03-01T04:49:37;8.73;;;4.00;;
75628;SDS011;64213;46.452;16.994;2023-03-01T04:52:40;31.47;;;7.40;;
75628;SDS011;64213;46.452;16.994;2023-03-01T04:55:42;18.50;;;7.12;;
75628;SDS011;64213;46.452;16.994;2023-03-01T04:58:45;25.42;;;8.48;;
75628;SDS011;64213;46.452;16.994;2023-03-01T05:01:48;17.05;;;6.37;;
75628;SDS011;64213;46.452;16.994;2023-03-01T05:04:51;27.93;;;9.53;;
75628;SDS011;64213;46.452;16.994;2023-03-01T05:07:57;12.50;;;4.33;;
75628;SDS011;64213;46.452;16.994;2023-03-01T05:11:05;16.67;;;5.10;;
75628;SDS011;64213;46.452;16.994;2023-03-01T05:14:10;15.80;;;6.00;;
75628;SDS011;64213;46.452;16.994;2023-03-01T05:17:12;12.45;;;4.85;;
75628;SDS011;64213;46.452;16.994;2023-03-01T05:20:15;12.80;;;5.27;;
75628;SDS011;64213;46.452;16.994;2023-03-01T05:23:18;23.53;;;8.10;;
75628;SDS011;64213;46.452;16.994;2023-03-01T05:26:21;27.90;;;9.00;;
75628;SDS011;64213;46.452;16.994;2023-03-01T05:29:30;16.40;;;4.05;;
75628;SDS011;64213;46.452;16.994;2023-03-01T05:32:36;17.77;;;6.03;;
75628;SDS011;64213;46.452;16.994;2023-03-01T05:35:41;14.70;;;5.37;;
75628;SDS011;64213;46.452;16.994;2023-03-01T05:38:45;26.83;;;9.30;;
75628;SDS011;64213;46.452;16.994;2023-03-01T05:41:47;14.07;;;5.85;;
75628;SDS011;64213;46.452;16.994;2023-03-01T05:44:49;21.83;;;7.70;;
75628;SDS011;64213;46.452;16.994;2023-03-01T05:47:52;18.25;;;6.35;;
75628;SDS011;64213;46.452;16.994;2023-03-01T05:50:58;26.17;;;8.47;;
75628;SDS011;64213;46.452;16.994;2023-03-01T05:54:02;21.60;;;8.07;;
75628;SDS011;64213;46.452;16.994;2023-03-01T05:57:07;22.30;;;8.27;;
75628;SDS011;64213;46.452;16.994;2023-03-01T06:00:10;29.65;;;8.93;;
75628;SDS011;64213;46.452;16.994;2023-03-01T06:03:15;19.25;;;7.30;;
75628;SDS011;64213;46.452;16.994;2023-03-01T06:06:18;17.60;;;5.67;;
75628;SDS011;64213;46.452;16.994;2023-03-01T06:09:20;20.70;;;8.07;;
75628;SDS011;64213;46.452;16.994;2023-03-01T06:12:23;26.17;;;7.87;;
75628;SDS011;64213;46.452;16.994;2023-03-01T06:15:25;17.00;;;5.97;;
75628;SDS011;64213;46.452;16.994;2023-03-01T06:18:27;24.40;;;8.60;;
75628;SDS011;64213;46.452;16.994;2023-03-01T06:21:30;9.67;;;4.30;;
75628;SDS011;64213;46.452;16.994;2023-03-01T06:24:32;20.73;;;7.70;;
75628;SDS011;64213;46.452;16.994;2023-03-01T06:27:34;24.55;;;10.02;;
75628;SDS011;64213;46.452;16.994;2023-03-01T06:30:38;25.25;;;8.68;;
75628;SDS011;64213;46.452;16.994;2023-03-01T06:33:40;29.48;;;9.77;;
75628;SDS011;64213;46.452;16.994;2023-03-01T06:36:42;30.00;;;10.80;;
75628;SDS011;64213;46.452;16.994;2023-03-01T06:39:44;30.93;;;10.40;;
75628;SDS011;64213;46.452;16.994;2023-03-01T06:42:50;25.73;;;9.40;;
75628;SDS011;64213;46.452;16.994;2023-03-01T06:45:52;17.35;;;6.03;;
75628;SDS011;64213;46.452;16.994;2023-03-01T06:48:54;19.27;;;7.62;;
75628;SDS011;64213;46.452;16.994;2023-03-01T06:51:57;29.10;;;9.30;;
75628;SDS011;64213;46.452;16.994;2023-03-01T06:54:59;7.93;;;3.47;;
75628;SDS011;64213;46.452;16.994;2023-03-01T06:58:03;12.55;;;4.70;;
75628;SDS011;64213;46.452;16.994;2023-03-01T07:01:07;30.08;;;8.90;;
75628;SDS011;64213;46.452;16.994;2023-03-01T07:04:12;20.35;;;7.85;;
75628;SDS011;64213;46.452;16.994;2023-03-01T07:07:14;14.63;;;5.57;;
75628;SDS011;64213;46.452;16.994;2023-03-01T07:10:19;26.27;;;9.63;;
75628;SDS011;64213;46.452;16.994;2023-03-01T07:13:22;23.10;;;8.95;;
75628;SDS011;64213;46.452;16.994;2023-03-01T07:16:25;16.87;;;5.60;;
75628;SDS011;64213;46.452;16.994;2023-03-01T07:19:27;15.10;;;5.78;;
75628;SDS011;64213;46.452;16.994;2023-03-01T07:22:30;10.27;;;4.37;;
75628;SDS011;64213;46.452;16.994;2023-03-01T07:25:32;12.10;;;5.13;;
75628;SDS011;64213;46.452;16.994;2023-03-01T07:28:34;18.65;;;6.85;;
75628;SDS011;64213;46.452;16.994;2023-03-01T07:31:40;17.45;;;6.85;;
75628;SDS011;64213;46.452;16.994;2023-03-01T07:34:42;16.48;;;5.72;;
75628;SDS011;64213;46.452;16.994;2023-03-01T07:37:44;22.67;;;7.37;;
75628;SDS011;64213;46.452;16.994;2023-03-01T07:40:47;13.80;;;5.67;;
75628;SDS011;64213;46.452;16.994;2023-03-01T07:43:49;11.07;;;5.15;;
75628;SDS011;64213;46.452;16.994;2023-03-01T07:46:51;19.85;;;7.32;;
75628;SDS011;64213;46.452;16.994;2023-03-01T07:49:58;13.60;;;6.03;;
75628;SDS011;64213;46.452;16.994;2023-03-01T07:53:00;8.80;;;3.37;;
75628;SDS011;64213;46.452;16.994;2023-03-01T07:56:03;19.80;;;7.23;;
75628;SDS011;64213;46.452;16.994;2023-03-01T07:59:07;16.35;;;7.22;;
75628;SDS011;64213;46.452;16.994;2023-03-01T08:02:10;15.50;;;5.65;;
75628;SDS011;64213;46.452;16.994;2023-03-01T08:05:12;16.25;;;7.20;;
75628;SDS011;64213;46.452;16.994;2023-03-01T08:08:15;16.73;;;6.50;;
75628;SDS011;64213;46.452;16.994;2023-03-01T08:11:18;19.93;;;6.90;;
75628;SDS011;64213;46.452;16.994;2023-03-01T08:14:20;14.70;;;5.37;;
75628;SDS011;64213;46.452;16.994;2023-03-01T08:17:22;9.57;;;3.58;;
75628;SDS011;64213;46.452;16.994;2023-03-01T08:20:25;17.02;;;5.82;;
75628;SDS011;64213;46.452;16.994;2023-03-01T08:23:27;5.47;;;2.23;;
75628;SDS011;64213;46.452;16.994;2023-03-01T08:26:29;10.73;;;3.73;;
75628;SDS011;64213;46.452;16.994;2023-03-01T08:29:32;15.43;;;5.05;;
75628;SDS011;64213;46.452;16.994;2023-03-01T08:32:36;5.10;;;1.83;;
75628;SDS011;64213;46.452;16.994;2023-03-01T08:35:41;8.02;;;2.67;;
75628;SDS011;64213;46.452;16.994;2023-03-01T08:38:43;6.70;;;2.23;;
75628;SDS011;64213;46.452;16.994;2023-03-01T08:41:46;8.63;;;3.20;;
75628;SDS011;64213;46.452;16.994;2023-03-01T08:44:48;10.43;;;3.08;;
75628;SDS011;64213;46.452;16.994;2023-03-01T08:47:53;14.57;;;5.85;;
75628;SDS011;64213;46.452;16.994;2023-03-01T08:50:56;17.58;;;5.82;;
75628;SDS011;64213;46.452;16.994;2023-03-01T08:54:12;13.27;;;4.93;;
75628;SDS011;64213;46.452;16.994;2023-03-01T08:57:17;12.03;;;4.30;;
75628;SDS011;64213;46.452;16.994;2023-03-01T09:00:21;13.88;;;4.60;;
75628;SDS011;64213;46.452;16.994;2023-03-01T09:03:24;17.33;;;6.43;;
75628;SDS011;64213;46.452;16.994;2023-03-01T09:06:26;10.95;;;4.47;;
75628;SDS011;64213;46.452;16.994;2023-03-01T09:09:32;19.70;;;7.73;;
75628;SDS011;64213;46.452;16.994;2023-03-01T09:12:35;12.60;;;5.10;;
75628;SDS011;64213;46.452;16.994;2023-03-01T09:15:37;14.10;;;3.90;;
75628;SDS011;64213;46.452;16.994;2023-03-01T09:18:40;13.40;;;4.37;;
75628;SDS011;64213;46.452;16.994;2023-03-01T09:21:42;17.45;;;6.43;;
75628;SDS011;64213;46.452;16.994;2023-03-01T09:24:53;15.43;;;6.47;;
75628;SDS011;64213;46.452;16.994;2023-03-01T09:27:55;13.60;;;5.53;;
75628;SDS011;64213;46.452;16.994;2023-03-01T09:30:58;13.38;;;5.68;;
75628;SDS011;64213;46.452;16.994;2023-03-01T09:34:02;17.80;;;6.95;;
75628;SDS011;64213;46.452;16.994;2023-03-01T09:37:04;14.93;;;5.75;;
75628;SDS011;64213;46.452;16.994;2023-03-01T09:40:07;21.17;;;8.10;;
75628;SDS011;64213;46.452;16.994;2023-03-01T09:46:40;22.73;;;6.22;;
75628;SDS011;64213;46.452;16.994;2023-03-01T09:49:47;25.05;;;8.02;;
75628;SDS011;64213;46.452;16.994;2023-03-01T09:53:22;18.33;;;6.70;;
75628;SDS011;64213;46.452;16.994;2023-03-01T09:56:39;24.57;;;9.37;;
75628;SDS011;64213;46.452;16.994;2023-03-01T10:06:27;19.48;;;7.40;;
75628;SDS011;64213;46.452;16.994;2023-03-01T10:09:37;21.92;;;7.47;;
75628;SDS011;64213;46.452;16.994;2023-03-01T10:12:41;12.97;;;4.87;;
75628;SDS011;64213;46.452;16.994;2023-03-01T10:15:56;12.80;;;4.17;;
75628;SDS011;64213;46.452;16.994;2023-03-01T10:19:03;18.65;;;6.93;;
75628;SDS011;64213;46.452;16.994;2023-03-01T10:22:13;12.95;;;5.20;;
75628;SDS011;64213;46.452;16.994;2023-03-01T10:25:33;9.02;;;2.83;;
75628;SDS011;64213;46.452;16.994;2023-03-01T10:28:52;5.93;;;2.03;;
75628;SDS011;64213;46.452;16.994;2023-03-01T10:32:04;23.83;;;9.33;;
75628;SDS011;64213;46.452;16.994;2023-03-01T10:35:19;8.85;;;2.97;;
75628;SDS011;64213;46.452;16.994;2023-03-01T10:38:23;16.20;;;5.30;;
75628;SDS011;64213;46.452;16.994;2023-03-01T10:41:26;11.15;;;4.75;;
75628;SDS011;64213;46.452;16.994;2023-03-01T10:44:40;24.67;;;9.20;;
75628;SDS011;64213;46.452;16.994;2023-03-01T10:47:47;22.93;;;8.33;;
75628;SDS011;64213;46.452;16.994;2023-03-01T10:51:06;22.33;;;8.32;;
75628;SDS011;64213;46.452;16.994;2023-03-01T10:54:43;7.72;;;3.65;;
75628;SDS011;64213;46.452;16.994;2023-03-01T10:57:39;11.85;;;3.92;;
75628;SDS011;64213;46.452;16.994;2023-03-01T11:00:55;12.70;;;5.40;;
75628;SDS011;64213;46.452;16.994;2023-03-01T11:04:22;21.30;;;8.03;;
75628;SDS011;64213;46.452;16.994;2023-03-01T11:07:21;13.05;;;5.43;;
75628;SDS011;64213;46.452;16.994;2023-03-01T11:10:27;15.25;;;5.57;;
75628;SDS011;64213;46.452;16.994;2023-03-01T11:13:32;21.00;;;6.45;;
75628;SDS011;64213;46.452;16.994;2023-03-01T11:16:37;18.03;;;6.50;;
75628;SDS011;64213;46.452;16.994;2023-03-01T11:19:41;11.00;;;4.77;;
75628;SDS011;64213;46.452;16.994;2023-03-01T11:22:53;20.50;;;6.45;;
75628;SDS011;64213;46.452;16.994;2023-03-01T11:25:58;20.25;;;7.68;;
75628;SDS011;64213;46.452;16.994;2023-03-01T11:29:04;18.23;;;7.35;;
75628;SDS011;64213;46.452;16.994;2023-03-01T11:32:14;17.53;;;6.43;;
75628;SDS011;64213;46.452;16.994;2023-03-01T11:35:21;18.00;;;7.27;;
75628;SDS011;64213;46.452;16.994;2023-03-01T11:38:27;10.23;;;3.20;;
75628;SDS011;64213;46.452;16.994;2023-03-01T11:41:33;20.60;;;7.07;;
75628;SDS011;64213;46.452;16.994;2023-03-01T11:44:38;22.30;;;8.52;;
75628;SDS011;64213;46.452;16.994;2023-03-01T11:51:05;20.13;;;7.60;;
75628;SDS011;64213;46.452;16.994;2023-03-01T12:01:07;23.80;;;8.63;;
75628;SDS011;64213;46.452;16.994;2023-03-01T12:04:43;11.00;;;4.23;;
75628;SDS011;64213;46.452;16.994;2023-03-01T12:07:53;11.97;;;4.57;;
75628;SDS011;64213;46.452;16.994;2023-03-01T12:28:40;28.42;;;10.02;;
75628;SDS011;64213;46.452;16.994;2023-03-01T12:32:15;19.37;;;8.40;;
75628;SDS011;64213;46.452;16.994;2023-03-01T12:48:47;27.02;;;11.52;;
75628;SDS011;64213;46.452;16.994;2023-03-01T12:52:03;27.27;;;9.40;;
75628;SDS011;64213;46.452;16.994;2023-03-01T12:55:49;30.73;;;11.60;;
75628;SDS011;64213;46.452;16.994;2023-03-01T13:08:36;31.70;;;13.25;;
75628;SDS011;64213;46.452;16.994;2023-03-01T13:11:44;11.30;;;4.93;;
75628;SDS011;64213;46.452;16.994;2023-03-01T13:14:47;24.30;;;9.07;;
75628;SDS011;64213;46.452;16.994;2023-03-01T13:18:02;15.90;;;6.35;;
75628;SDS011;64213;46.452;16.994;2023-03-01T13:21:29;21.73;;;9.27;;
75628;SDS011;64213;46.452;16.994;2023-03-01T13:24:34;26.85;;;9.68;;
75628;SDS011;64213;46.452;16.994;2023-03-01T13:27:40;16.27;;;6.23;;
75628;SDS011;64213;46.452;16.994;2023-03-01T13:30:44;10.17;;;4.40;;
75628;SDS011;64213;46.452;16.994;2023-03-01T13:37:10;23.98;;;10.88;;
75628;SDS011;64213;46.452;16.994;2023-03-01T13:43:29;27.00;;;10.87;;
75628;SDS011;64213;46.452;16.994;2023-03-01T13:46:34;17.97;;;7.77;;
75628;SDS011;64213;46.452;16.994;2023-03-01T13:52:53;14.98;;;5.93;;
75628;SDS011;64213;46.452;16.994;2023-03-01T13:59:21;19.53;;;7.90;;
75628;SDS011;64213;46.452;16.994;2023-03-01T14:02:24;25.73;;;10.10;;
75628;SDS011;64213;46.452;16.994;2023-03-01T14:05:26;25.27;;;10.50;;
75628;SDS011;64213;46.452;16.994;2023-03-01T14:08:29;20.00;;;8.68;;
75628;SDS011;64213;46.452;16.994;2023-03-01T14:15:19;17.73;;;6.03;;
75628;SDS011;64213;46.452;16.994;2023-03-01T14:18:30;15.10;;;5.93;;
75628;SDS011;64213;46.452;16.994;2023-03-01T14:21:45;18.85;;;6.05;;
75628;SDS011;64213;46.452;16.994;2023-03-01T14:24:53;22.00;;;8.63;;
75628;SDS011;64213;46.452;16.994;2023-03-01T14:27:59;22.15;;;7.50;;
75628;SDS011;64213;46.452;16.994;2023-03-01T14:34:45;21.83;;;7.97;;
75628;SDS011;64213;46.452;16.994;2023-03-01T14:37:48;22.75;;;9.63;;
75628;SDS011;64213;46.452;16.994;2023-03-01T14:40:53;10.18;;;4.22;;
75628;SDS011;64213;46.452;16.994;2023-03-01T14:44:01;27.15;;;11.05;;
75628;SDS011;64213;46.452;16.994;2023-03-01T14:47:10;15.57;;;6.07;;
75628;SDS011;64213;46.452;16.994;2023-03-01T14:50:30;25.17;;;10.67;;
75628;SDS011;64213;46.452;16.994;2023-03-01T14:53:34;22.70;;;8.55;;
75628;SDS011;64213;46.452;16.994;2023-03-01T14:56:51;15.77;;;7.10;;
75628;SDS011;64213;46.452;16.994;2023-03-01T14:59:57;23.38;;;10.15;;
75628;SDS011;64213;46.452;16.994;2023-03-01T15:03:06;24.83;;;10.70;;
75628;SDS011;64213;46.452;16.994;2023-03-01T15:06:16;25.03;;;10.17;;
75628;SDS011;64213;46.452;16.994;2023-03-01T15:09:21;24.02;;;10.35;;
75628;SDS011;64213;46.452;16.994;2023-03-01T15:15:34;21.00;;;8.57;;
75628;SDS011;64213;46.452;16.994;2023-03-01T15:18:42;19.03;;;9.27;;
75628;SDS011;64213;46.452;16.994;2023-03-01T15:21:49;20.20;;;9.10;;
75628;SDS011;64213;46.452;16.994;2023-03-01T15:24:52;18.67;;;8.15;;
75628;SDS011;64213;46.452;16.994;2023-03-01T15:27:55;14.32;;;5.65;;
75628;SDS011;64213;46.452;16.994;2023-03-01T15:31:02;32.75;;;12.37;;
75628;SDS011;64213;46.452;16.994;2023-03-01T15:34:47;26.07;;;10.40;;
75628;SDS011;64213;46.452;16.994;2023-03-01T15:37:45;31.03;;;11.00;;
75628;SDS011;64213;46.452;16.994;2023-03-01T15:40:52;25.35;;;10.73;;
75628;SDS011;64213;46.452;16.994;2023-03-01T15:43:55;26.35;;;9.60;;
75628;SDS011;64213;46.452;16.994;2023-03-01T15:46:57;34.22;;;12.55;;
75628;SDS011;64213;46.452;16.994;2023-03-01T15:50:00;26.27;;;9.37;;
75628;SDS011;64213;46.452;16.994;2023-03-01T15:53:06;19.87;;;6.10;;
75628;SDS011;64213;46.452;16.994;2023-03-01T15:56:12;33.60;;;12.13;;
75628;SDS011;64213;46.452;16.994;2023-03-01T15:59:15;38.60;;;14.57;;
75628;SDS011;64213;46.452;16.994;2023-03-01T16:02:18;37.80;;;14.00;;
75628;SDS011;64213;46.452;16.994;2023-03-01T16:05:27;33.97;;;12.63;;
75628;SDS011;64213;46.452;16.994;2023-03-01T16:08:30;35.77;;;13.40;;
75628;SDS011;64213;46.452;16.994;2023-03-01T16:11:33;32.55;;;12.40;;
75628;SDS011;64213;46.452;16.994;2023-03-01T16:14:38;35.25;;;13.82;;
75628;SDS011;64213;46.452;16.994;2023-03-01T16:17:41;37.42;;;14.02;;
75628;SDS011;64213;46.452;16.994;2023-03-01T16:20:46;38.37;;;15.20;;
75628;SDS011;64213;46.452;16.994;2023-03-01T16:23:49;29.97;;;12.97;;
75628;SDS011;64213;46.452;16.994;2023-03-01T16:26:53;33.85;;;13.95;;
75628;SDS011;64213;46.452;16.994;2023-03-01T16:29:55;36.35;;;15.52;;
75628;SDS011;64213;46.452;16.994;2023-03-01T16:32:57;32.25;;;13.00;;
75628;SDS011;64213;46.452;16.994;2023-03-01T16:36:01;38.60;;;14.30;;
75628;SDS011;64213;46.452;16.994;2023-03-01T16:39:09;38.50;;;14.97;;
75628;SDS011;64213;46.452;16.994;2023-03-01T16:42:12;29.83;;;13.00;;
75628;SDS011;64213;46.452;16.994;2023-03-01T16:45:15;35.60;;;12.63;;
75628;SDS011;64213;46.452;16.994;2023-03-01T16:48:27;42.10;;;14.20;;
75628;SDS011;64213;46.452;16.994;2023-03-01T16:51:30;35.83;;;15.10;;
75628;SDS011;64213;46.452;16.994;2023-03-01T16:54:35;38.83;;;15.67;;
75628;SDS011;64213;46.452;16.994;2023-03-01T16:57:39;38.08;;;13.25;;
75628;SDS011;64213;46.452;16.994;2023-03-01T17:00:45;36.28;;;13.80;;
75628;SDS011;64213;46.452;16.994;2023-03-01T17:03:50;34.75;;;13.95;;
75628;SDS011;64213;46.452;16.994;2023-03-01T17:06:54;31.63;;;13.10;;
75628;SDS011;64213;46.452;16.994;2023-03-01T17:09:59;36.47;;;14.63;;
75628;SDS011;64213;46.452;16.994;2023-03-01T17:13:04;35.28;;;14.02;;
75628;SDS011;64213;46.452;16.994;2023-03-01T17:16:09;34.65;;;14.25;;
75628;SDS011;64213;46.452;16.994;2023-03-01T17:19:17;29.70;;;12.73;;
75628;SDS011;64213;46.452;16.994;2023-03-01T17:22:20;31.67;;;12.90;;
75628;SDS011;64213;46.452;16.994;2023-03-01T17:25:22;36.27;;;14.07;;
75628;SDS011;64213;46.452;16.994;2023-03-01T17:28:26;33.17;;;13.50;;
75628;SDS011;64213;46.452;16.994;2023-03-01T17:31:31;25.20;;;11.12;;
75628;SDS011;64213;46.452;16.994;2023-03-01T17:34:35;29.08;;;12.25;;
75628;SDS011;64213;46.452;16.994;2023-03-01T17:37:39;35.33;;;13.97;;
75628;SDS011;64213;46.452;16.994;2023-03-01T17:40:49;33.50;;;14.13;;
75628;SDS011;64213;46.452;16.994;2023-03-01T17:43:52;35.05;;;14.13;;
75628;SDS011;64213;46.452;16.994;2023-03-01T17:46:55;39.85;;;16.37;;
75628;SDS011;64213;46.452;16.994;2023-03-01T17:49:58;43.35;;;17.33;;
75628;SDS011;64213;46.452;16.994;2023-03-01T17:53:01;40.27;;;16.57;;
75628;SDS011;64213;46.452;16.994;2023-03-01T17:56:11;41.83;;;18.33;;
75628;SDS011;64213;46.452;16.994;2023-03-01T17:59:13;45.65;;;19.00;;
75628;SDS011;64213;46.452;16.994;2023-03-01T18:02:18;44.03;;;19.77;;
75628;SDS011;64213;46.452;16.994;2023-03-01T18:05:21;43.15;;;17.75;;
75628;SDS011;64213;46.452;16.994;2023-03-01T18:08:24;43.03;;;18.83;;
75628;SDS011;64213;46.452;16.994;2023-03-01T18:11:27;50.10;;;20.17;;
75628;SDS011;64213;46.452;16.994;2023-03-01T18:14:31;48.53;;;20.00;;
75628;SDS011;64213;46.452;16.994;2023-03-01T18:17:35;54.83;;;25.70;;
75628;SDS011;64213;46.452;16.994;2023-03-01T18:20:38;54.88;;;22.52;;
75628;SDS011;64213;46.452;16.994;2023-03-01T18:23:41;50.83;;;21.50;;
75628;SDS011;64213;46.452;16.994;2023-03-01T18:26:45;47.60;;;20.73;;
75628;SDS011;64213;46.452;16.994;2023-03-01T18:29:48;43.17;;;18.10;;
75628;SDS011;64213;46.452;16.994;2023-03-01T18:32:51;41.30;;;16.37;;
75628;SDS011;64213;46.452;16.994;2023-03-01T18:35:57;31.17;;;13.65;;
75628;SDS011;64213;46.452;16.994;2023-03-01T18:39:01;43.47;;;18.23;;
75628;SDS011;64213;46.452;16.994;2023-03-01T18:42:06;44.00;;;18.37;;
75628;SDS011;64213;46.452;16.994;2023-03-01T18:45:10;40.88;;;14.85;;
75628;SDS011;64213;46.452;16.994;2023-03-01T18:48:15;46.72;;;18.12;;
75628;SDS011;64213;46.452;16.994;2023-03-01T18:51:19;40.22;;;17.15;;
75628;SDS011;64213;46.452;16.994;2023-03-01T18:54:25;35.60;;;12.70;;
75628;SDS011;64213;46.452;16.994;2023-03-01T18:57:29;38.07;;;14.83;;
75628;SDS011;64213;46.452;16.994;2023-03-01T19:00:33;40.35;;;14.27;;
75628;SDS011;64213;46.452;16.994;2023-03-01T19:03:37;37.38;;;14.95;;
75628;SDS011;64213;46.452;16.994;2023-03-01T19:06:41;27.33;;;11.25;;
75628;SDS011;64213;46.452;16.994;2023-03-01T19:09:44;31.17;;;11.80;;
75628;SDS011;64213;46.452;16.994;2023-03-01T19:12:47;24.83;;;9.67;;
75628;SDS011;64213;46.452;16.994;2023-03-01T19:15:50;34.90;;;14.25;;
75628;SDS011;64213;46.452;16.994;2023-03-01T19:18:55;31.20;;;12.37;;
75628;SDS011;64213;46.452;16.994;2023-03-01T19:22:01;32.42;;;15.05;;
75628;SDS011;64213;46.452;16.994;2023-03-01T19:25:07;34.83;;;14.80;;
75628;SDS011;64213;46.452;16.994;2023-03-01T19:28:09;40.57;;;15.83;;
75628;SDS011;64213;46.452;16.994;2023-03-01T19:31:14;36.90;;;13.48;;
75628;SDS011;64213;46.452;16.994;2023-03-01T19:34:22;36.25;;;14.63;;
75628;SDS011;64213;46.452;16.994;2023-03-01T19:37:26;27.25;;;11.43;;
75628;SDS011;64213;46.452;16.994;2023-03-01T19:40:31;29.30;;;12.97;;